createdAt,value
2019-05-23T00:00:32.266Z,99.99
2019-05-23T00:01:32.199Z,99.99
2019-05-23T00:02:32.264Z,99.99
2019-05-23T00:03:32.127Z,99.99
2019-05-23T00:04:32.190Z,99.99
2019-05-23T00:05:32.185Z,99.99
2019-05-23T00:06:32.144Z,99.99
2019-05-23T00:07:32.145Z,99.99
2019-05-23T00:08:32.159Z,99.99
2019-05-23T00:09:32.146Z,99.99
2019-05-23T00:10:32.272Z,99.99
2019-05-23T00:11:32.186Z,99.99
2019-05-23T00:12:32.168Z,99.99
2019-05-23T00:13:32.170Z,99.99
2019-05-23T00:14:32.201Z,99.99
2019-05-23T00:15:32.225Z,99.99
2019-05-23T00:16:32.192Z,99.99
2019-05-23T00:17:32.197Z,99.99
2019-05-23T00:18:32.206Z,99.99
2019-05-23T00:19:32.176Z,99.99
2019-05-23T00:20:32.242Z,99.99
2019-05-23T00:21:32.245Z,99.99
2019-05-23T00:22:32.209Z,99.99
2019-05-23T00:23:32.492Z,99.99
2019-05-23T00:24:32.197Z,99.99
2019-05-23T00:25:32.251Z,99.99
2019-05-23T00:26:32.246Z,99.99
2019-05-23T00:27:32.180Z,99.99
2019-05-23T00:28:32.210Z,99.99
2019-05-23T00:29:32.255Z,99.99
2019-05-23T00:30:32.230Z,99.99
2019-05-23T00:31:32.195Z,99.99
2019-05-23T00:32:32.240Z,99.99
2019-05-23T00:33:32.249Z,99.99
2019-05-23T00:34:32.188Z,99.99
2019-05-23T00:35:32.398Z,99.99
2019-05-23T00:36:32.221Z,99.99
2019-05-23T00:37:32.206Z,99.99
2019-05-23T00:38:32.198Z,99.99
2019-05-23T00:39:32.219Z,99.99
2019-05-23T00:40:32.243Z,99.99
2019-05-23T00:41:32.236Z,99.99
2019-05-23T00:42:32.242Z,99.99
2019-05-23T00:43:32.296Z,99.99
2019-05-23T00:44:32.237Z,99.99
2019-05-23T00:45:32.304Z,99.99
2019-05-23T00:46:32.207Z,99.99
2019-05-23T00:47:32.212Z,99.99
2019-05-23T00:48:32.977Z,99.99
2019-05-23T00:53:01.078Z,99.99
2019-05-23T00:59:40.409Z,99.99
2019-05-23T01:00:40.362Z,99.99
2019-05-23T01:01:40.702Z,99.99
2019-05-23T01:02:40.401Z,99.99
2019-05-23T01:03:40.367Z,99.99
2019-05-23T01:04:40.371Z,99.99
2019-05-23T01:05:40.379Z,99.99
2019-05-23T01:06:40.359Z,99.99
2019-05-23T01:07:40.387Z,99.99
2019-05-23T01:08:40.391Z,99.99
2019-05-23T01:09:40.362Z,99.99
2019-05-23T01:10:40.343Z,99.99
2019-05-23T01:11:40.407Z,99.99
2019-05-23T01:12:40.405Z,99.99
2019-05-23T01:13:40.447Z,99.99
2019-05-23T01:14:40.371Z,99.99
2019-05-23T01:15:40.403Z,99.99
2019-05-23T01:16:40.507Z,99.99
2019-05-23T01:17:40.400Z,99.99
2019-05-23T01:18:40.424Z,99.99
2019-05-23T01:19:40.430Z,99.99
2019-05-23T01:20:40.416Z,99.99
2019-05-23T01:21:40.385Z,99.99
2019-05-23T01:22:40.364Z,99.99
2019-05-23T01:23:40.438Z,99.99
2019-05-23T01:24:40.508Z,99.99
2019-05-23T01:25:40.512Z,99.99
2019-05-23T01:26:40.415Z,99.99
2019-05-23T01:27:40.422Z,99.99
2019-05-23T01:28:40.425Z,99.99
2019-05-23T01:29:41.299Z,99.99
2019-05-23T01:30:40.723Z,99.99
2019-05-23T01:31:40.455Z,99.99
2019-05-23T01:32:40.517Z,99.99
2019-05-23T01:33:40.438Z,99.99
2019-05-23T01:34:40.461Z,99.99
2019-05-23T01:35:40.516Z,99.99
2019-05-23T01:36:40.417Z,99.99
2019-05-23T01:37:40.488Z,99.99
2019-05-23T01:38:40.454Z,99.99
2019-05-23T01:39:40.434Z,99.99
2019-05-23T01:40:40.418Z,99.99
2019-05-23T01:41:40.407Z,99.99
2019-05-23T01:42:40.413Z,99.99
2019-05-23T01:43:40.445Z,99.99
2019-05-23T01:44:40.408Z,99.99
2019-05-23T01:45:40.533Z,99.99
2019-05-23T01:46:40.458Z,99.99
2019-05-23T01:47:40.553Z,99.99
2019-05-23T01:48:41.036Z,99.99
2019-05-23T01:49:40.665Z,99.99
2019-05-23T01:50:40.424Z,99.99
2019-05-23T01:51:40.473Z,99.99
2019-05-23T01:52:40.466Z,99.99
2019-05-23T01:53:40.474Z,99.99
2019-05-23T01:54:40.429Z,99.99
2019-05-23T01:55:40.444Z,99.99
2019-05-23T01:58:47.678Z,99.99
2019-05-23T02:03:15.638Z,99.99
2019-05-23T02:03:26.649Z,99.99
2019-05-23T02:04:26.656Z,99.99
2019-05-23T02:05:26.601Z,99.99
2019-05-23T02:06:26.586Z,99.99
2019-05-23T02:07:26.617Z,99.99
2019-05-23T02:08:26.661Z,99.99
2019-05-23T02:09:26.617Z,99.99
2019-05-23T02:10:26.659Z,99.99
2019-05-23T02:11:27.069Z,99.99
2019-05-23T02:12:26.606Z,99.99
2019-05-23T02:13:27.040Z,99.99
2019-05-23T02:14:26.625Z,99.99
2019-05-23T02:15:26.687Z,99.99
2019-05-23T02:16:26.596Z,99.99
2019-05-23T02:17:26.664Z,99.99
2019-05-23T02:18:34.813Z,99.99
2019-05-23T02:19:26.642Z,99.99
2019-05-23T02:20:26.625Z,99.99
2019-05-23T02:21:26.661Z,99.99
2019-05-23T02:22:26.622Z,99.99
2019-05-23T02:23:42.405Z,99.99
2019-05-23T02:24:42.392Z,99.99
2019-05-23T02:25:42.458Z,99.99
2019-05-23T02:26:42.380Z,99.99
2019-05-23T02:27:42.374Z,99.99
2019-05-23T02:28:42.378Z,99.99
2019-05-23T02:29:42.404Z,99.99
2019-05-23T02:30:42.396Z,99.99
2019-05-23T02:31:42.397Z,99.99
2019-05-23T02:32:42.363Z,99.99
2019-05-23T02:33:42.384Z,99.99
2019-05-23T02:34:42.360Z,99.99
2019-05-23T02:35:42.401Z,99.99
2019-05-23T02:36:42.386Z,99.99
2019-05-23T02:37:42.413Z,99.99
2019-05-23T02:38:42.694Z,99.99
2019-05-23T02:43:58.800Z,99.99
2019-05-23T02:44:10.163Z,99.99
2019-05-23T02:45:09.788Z,99.99
2019-05-23T02:46:09.808Z,99.99
2019-05-23T02:47:09.837Z,99.99
2019-05-23T02:48:09.839Z,99.99
2019-05-23T02:49:09.869Z,99.99
2019-05-23T02:50:09.855Z,99.99
2019-05-23T02:51:10.103Z,99.99
2019-05-23T02:52:09.826Z,99.99
2019-05-23T02:53:09.819Z,99.99
2019-05-23T02:54:09.823Z,99.99
2019-05-23T02:55:09.831Z,99.99
2019-05-23T02:56:09.814Z,99.99
2019-05-23T02:57:09.803Z,99.99
2019-05-23T02:58:09.831Z,99.99
2019-05-23T02:59:09.835Z,99.99
2019-05-23T03:00:10.378Z,99.99
2019-05-23T03:01:09.836Z,99.99
2019-05-23T03:02:09.833Z,99.99
2019-05-23T03:03:09.842Z,99.99
2019-05-23T03:04:09.866Z,99.99
2019-05-23T03:05:09.826Z,99.99
2019-05-23T03:06:09.880Z,99.99
2019-05-23T03:07:09.828Z,99.99
2019-05-23T03:08:09.874Z,99.99
2019-05-23T03:09:09.841Z,99.99
2019-05-23T03:10:09.955Z,99.99
2019-05-23T03:14:38.926Z,99.99
2019-05-23T03:15:38.930Z,99.99
2019-05-23T03:16:39.030Z,99.99
2019-05-23T03:17:38.938Z,99.99
2019-05-23T03:18:48.546Z,99.99
2019-05-23T03:23:56.068Z,99.99
2019-05-23T03:24:07.406Z,99.99
2019-05-23T03:25:07.186Z,99.99
2019-05-23T03:26:07.136Z,99.99
2019-05-23T03:27:07.113Z,99.99
2019-05-23T03:28:07.103Z,99.99
2019-05-23T03:29:07.106Z,99.99
2019-05-23T03:30:07.383Z,99.99
2019-05-23T03:31:32.535Z,99.99
2019-05-23T03:32:07.106Z,99.99
2019-05-23T03:33:07.153Z,99.99
2019-05-23T03:34:07.081Z,99.99
2019-05-23T03:35:07.227Z,99.99
2019-05-23T03:36:07.216Z,99.99
2019-05-23T03:37:07.141Z,99.99
2019-05-23T03:38:07.144Z,99.99
2019-05-23T03:39:07.113Z,99.99
2019-05-23T03:40:07.129Z,99.99
2019-05-23T03:41:07.132Z,99.99
2019-05-23T03:42:07.130Z,99.99
2019-05-23T03:43:07.116Z,99.99
2019-05-23T03:44:07.163Z,99.99
2019-05-23T03:45:07.128Z,99.99
2019-05-23T03:46:07.097Z,99.99
2019-05-23T03:47:07.103Z,99.99
2019-05-23T03:48:07.150Z,99.99
2019-05-23T03:49:07.141Z,99.99
2019-05-23T03:50:08.105Z,99.99
2019-05-23T03:51:07.172Z,99.99
2019-05-23T03:52:07.141Z,99.99
2019-05-23T03:53:07.167Z,99.99
2019-05-23T03:54:07.425Z,99.99
2019-05-23T03:55:07.159Z,99.99
2019-05-23T03:56:07.147Z,99.99
2019-05-23T03:57:07.130Z,99.99
2019-05-23T03:58:07.136Z,99.99
2019-05-23T03:59:07.274Z,99.99
2019-05-23T04:00:07.193Z,99.99
2019-05-23T04:01:07.141Z,99.99
2019-05-23T04:02:07.148Z,99.99
2019-05-23T04:03:10.756Z,99.99
2019-05-23T04:04:07.138Z,99.99
2019-05-23T04:05:07.146Z,99.99
2019-05-23T04:06:07.170Z,99.99
2019-05-23T04:07:07.199Z,99.99
2019-05-23T04:08:07.154Z,99.99
2019-05-23T04:09:07.188Z,99.99
2019-05-23T04:10:07.157Z,99.99
2019-05-23T04:11:07.164Z,99.99
2019-05-23T04:12:07.170Z,99.99
2019-05-23T04:13:07.189Z,99.99
2019-05-23T04:14:07.141Z,99.99
2019-05-23T04:15:07.149Z,99.99
2019-05-23T04:16:07.180Z,99.99
2019-05-23T04:17:07.181Z,99.99
2019-05-23T04:18:07.166Z,99.99
2019-05-23T04:19:07.161Z,99.99
2019-05-23T04:20:07.213Z,99.99
2019-05-23T04:21:07.216Z,99.99
2019-05-23T04:22:07.206Z,99.99
2019-05-23T04:23:07.271Z,99.99
2019-05-23T04:24:07.168Z,99.99
2019-05-23T04:25:07.877Z,99.99
2019-05-23T04:26:08.315Z,99.99
2019-05-23T04:27:07.212Z,99.99
2019-05-23T04:28:07.203Z,99.99
2019-05-23T04:29:07.227Z,99.99
2019-05-23T04:30:07.287Z,99.99
2019-05-23T04:31:07.205Z,99.99
2019-05-23T04:32:11.286Z,99.99
2019-05-23T04:33:07.221Z,99.99
2019-05-23T04:34:07.237Z,99.99
2019-05-23T04:35:07.211Z,99.99
2019-05-23T04:36:07.188Z,99.99
2019-05-23T04:37:07.257Z,99.99
2019-05-23T04:38:07.200Z,99.99
2019-05-23T04:43:24.622Z,99.99
2019-05-23T04:43:35.706Z,99.99
2019-05-23T04:44:35.625Z,99.99
2019-05-23T04:45:35.597Z,99.99
2019-05-23T04:46:35.579Z,99.99
2019-05-23T04:47:35.608Z,99.99
2019-05-23T04:48:35.619Z,99.99
2019-05-23T04:49:35.608Z,99.99
2019-05-23T04:50:35.571Z,99.99
2019-05-23T04:51:35.706Z,99.99
2019-05-23T04:52:35.585Z,99.99
2019-05-23T04:53:35.859Z,99.99
2019-05-23T04:54:35.598Z,99.99
2019-05-23T04:55:35.682Z,99.99
2019-05-23T04:56:35.695Z,99.99
2019-05-23T04:57:35.620Z,99.99
2019-05-23T04:58:35.626Z,99.99
2019-05-23T04:59:35.589Z,99.99
2019-05-23T05:00:35.618Z,99.99
2019-05-23T05:01:35.791Z,99.99
2019-05-23T05:02:35.613Z,99.99
2019-05-23T05:03:35.644Z,99.99
2019-05-23T05:04:35.909Z,99.99
2019-05-23T05:05:35.608Z,99.99
2019-05-23T05:06:35.620Z,99.99
2019-05-23T05:07:35.627Z,99.99
2019-05-23T05:08:35.611Z,99.99
2019-05-23T05:09:35.633Z,99.99
2019-05-23T05:10:35.651Z,99.99
2019-05-23T05:11:35.611Z,99.99
2019-05-23T05:12:35.622Z,99.99
2019-05-23T05:13:35.870Z,99.99
2019-05-23T05:14:35.628Z,99.99
2019-05-23T05:15:35.674Z,99.99
2019-05-23T05:16:35.681Z,99.99
2019-05-23T05:17:35.728Z,99.99
2019-05-23T05:18:35.663Z,99.99
2019-05-23T05:19:35.638Z,99.99
2019-05-23T05:20:35.693Z,99.99
2019-05-23T05:21:35.644Z,99.99
2019-05-23T05:22:35.669Z,99.99
2019-05-23T05:23:35.681Z,99.99
2019-05-23T05:24:39.883Z,99.99
2019-05-23T05:25:35.667Z,99.99
2019-05-23T05:26:35.648Z,99.99
2019-05-23T05:27:35.646Z,99.99
2019-05-23T05:28:35.674Z,99.99
2019-05-23T05:29:35.655Z,99.99
2019-05-23T05:30:35.756Z,99.99
2019-05-23T05:31:35.675Z,99.99
2019-05-23T05:32:47.518Z,99.99
2019-05-23T05:33:35.664Z,99.99
2019-05-23T05:34:35.669Z,99.99
2019-05-23T05:35:35.687Z,99.99
2019-05-23T05:36:35.681Z,99.99
2019-05-23T05:37:35.677Z,99.99
2019-05-23T05:38:35.698Z,99.99
2019-05-23T05:39:35.686Z,99.99
2019-05-23T05:40:35.674Z,99.99
2019-05-23T05:41:35.757Z,99.99
2019-05-23T05:42:35.684Z,99.99
2019-05-23T05:43:35.687Z,99.99
2019-05-23T05:44:35.659Z,99.99
2019-05-23T05:45:36.191Z,99.99
2019-05-23T05:46:35.670Z,99.99
2019-05-23T05:47:35.659Z,99.99
2019-05-23T05:48:35.690Z,99.99
2019-05-23T05:49:36.845Z,99.99
2019-05-23T05:50:35.678Z,99.99
2019-05-23T05:51:35.773Z,99.99
2019-05-23T05:52:35.716Z,99.99
2019-05-23T05:53:35.684Z,99.99
2019-05-23T05:54:35.683Z,99.99
2019-05-23T05:55:35.787Z,99.99
2019-05-23T05:56:35.701Z,99.99
2019-05-23T05:57:35.711Z,99.99
2019-05-23T05:58:35.731Z,99.99
2019-05-23T05:59:36.277Z,99.99
2019-05-23T06:00:35.712Z,99.99
2019-05-23T06:01:36.918Z,99.99
2019-05-23T06:02:35.697Z,99.99
2019-05-23T06:03:35.712Z,99.99
2019-05-23T06:04:35.673Z,99.99
2019-05-23T06:05:35.751Z,99.99
2019-05-23T06:06:35.708Z,99.99
2019-05-23T06:07:35.713Z,99.99
2019-05-23T06:08:35.765Z,99.99
2019-05-23T06:09:35.833Z,99.99
2019-05-23T06:10:35.770Z,99.99
2019-05-23T06:11:35.738Z,99.99
2019-05-23T06:12:35.743Z,99.99
2019-05-23T06:13:35.936Z,99.99
2019-05-23T06:14:35.719Z,99.99
2019-05-23T06:15:35.742Z,99.99
2019-05-23T06:16:35.698Z,99.99
2019-05-23T06:17:35.736Z,99.99
2019-05-23T06:18:35.700Z,99.99
2019-05-23T06:19:35.775Z,99.99
2019-05-23T06:20:35.719Z,99.99
2019-05-23T06:21:35.749Z,99.99
2019-05-23T06:22:35.773Z,99.99
2019-05-23T06:23:35.771Z,99.99
2019-05-23T06:24:51.494Z,99.99
2019-05-23T06:25:35.754Z,99.99
2019-05-23T06:26:35.745Z,99.99
2019-05-23T06:27:35.732Z,99.99
2019-05-23T06:28:35.771Z,99.99
2019-05-23T06:29:35.767Z,99.99
2019-05-23T06:30:35.794Z,99.99
2019-05-23T06:31:35.808Z,99.99
2019-05-23T06:32:35.967Z,99.99
2019-05-23T06:33:35.781Z,99.99
2019-05-23T06:34:35.773Z,99.99
2019-05-23T06:35:35.785Z,99.99
2019-05-23T06:36:36.013Z,99.99
2019-05-23T06:37:37.041Z,99.99
2019-05-23T06:38:35.760Z,99.99
2019-05-23T06:43:53.278Z,99.99
2019-05-23T06:44:04.298Z,99.99
2019-05-23T06:45:04.291Z,99.99
2019-05-23T06:46:04.281Z,99.99
2019-05-23T06:47:04.282Z,99.99
2019-05-23T06:48:04.433Z,99.99
2019-05-23T06:49:07.585Z,99.99
2019-05-23T06:50:04.458Z,99.99
2019-05-23T06:51:04.583Z,99.99
2019-05-23T06:52:04.340Z,99.99
2019-05-23T06:53:05.178Z,99.99
2019-05-23T06:54:04.474Z,99.99
2019-05-23T06:55:04.327Z,99.99
2019-05-23T06:56:04.285Z,99.99
2019-05-23T06:57:04.357Z,99.99
2019-05-23T06:58:04.299Z,99.53
2019-05-23T06:59:04.639Z,98.86
2019-05-23T07:00:04.320Z,99.53
2019-05-23T07:01:04.596Z,99.99
2019-05-23T07:02:04.285Z,99.34
2019-05-23T07:03:04.863Z,99.99
2019-05-23T07:04:04.400Z,99.99
2019-05-23T07:05:04.326Z,99.99
2019-05-23T07:06:04.359Z,97.76
2019-05-23T07:07:04.765Z,96.61
2019-05-23T07:08:04.294Z,96.89
2019-05-23T07:09:04.332Z,96.03
2019-05-23T07:10:06.291Z,94.83
2019-05-23T07:11:04.367Z,95.79
2019-05-23T07:12:04.318Z,95.79
2019-05-23T07:13:04.319Z,95.89
2019-05-23T07:14:04.326Z,96.27
2019-05-23T07:15:05.762Z,95.89
2019-05-23T07:16:04.359Z,95.17
2019-05-23T07:17:04.329Z,94.4
2019-05-23T07:18:04.328Z,93.92
2019-05-23T07:19:06.350Z,93.82
2019-05-23T07:20:04.346Z,92.38
2019-05-23T07:21:04.380Z,92.67
2019-05-23T07:22:04.321Z,92.81
2019-05-23T07:23:04.303Z,93.1
2019-05-23T07:24:04.354Z,92.96
2019-05-23T07:25:04.377Z,93.96
2019-05-23T07:26:04.363Z,92.86
2019-05-23T07:27:04.391Z,91.95
2019-05-23T07:28:04.642Z,91.85
2019-05-23T07:29:04.388Z,92.72
2019-05-23T07:30:04.535Z,93.1
2019-05-23T07:31:04.404Z,91.52
2019-05-23T07:32:04.384Z,90.55
2019-05-23T07:33:04.903Z,90.45
2019-05-23T07:34:05.383Z,91.61
2019-05-23T07:35:04.448Z,90.17
2019-05-23T07:36:04.380Z,90.26
2019-05-23T07:37:04.378Z,90.45
2019-05-23T07:38:04.509Z,92.38
2019-05-23T07:39:04.399Z,92.14
2019-05-23T07:40:04.384Z,92.33
2019-05-23T07:41:04.386Z,93.49
2019-05-23T07:45:32.384Z,90.41
2019-05-23T07:46:32.421Z,89.78
2019-05-23T07:47:32.321Z,89.64
2019-05-23T07:48:32.328Z,89.44
2019-05-23T07:49:32.346Z,88.67
2019-05-23T07:50:32.330Z,88.67
2019-05-23T07:51:32.580Z,88.67
2019-05-23T07:52:32.360Z,89.25
2019-05-23T07:53:32.512Z,88.91
2019-05-23T07:54:32.348Z,87.95
2019-05-23T07:55:32.355Z,88.71
2019-05-23T07:56:32.306Z,88.43
2019-05-23T07:57:32.354Z,90.02
2019-05-23T07:58:32.405Z,89.58
2019-05-23T07:59:32.348Z,88.71
2019-05-23T08:00:32.402Z,87.51
2019-05-23T08:01:32.337Z,87.9
2019-05-23T08:02:32.376Z,87.03
2019-05-23T08:03:32.393Z,85.78
2019-05-23T08:04:32.338Z,85.91
2019-05-23T08:05:32.366Z,85.43
2019-05-23T08:06:32.351Z,85.58
2019-05-23T08:07:35.444Z,85.87
2019-05-23T08:08:32.367Z,85.58
2019-05-23T08:09:32.351Z,87.27
2019-05-23T08:10:36.625Z,87.46
2019-05-23T08:11:32.365Z,87.18
2019-05-23T08:12:32.393Z,85.49
2019-05-23T08:13:32.346Z,84.97
2019-05-23T08:14:32.392Z,85.6
2019-05-23T08:15:32.397Z,84.34
2019-05-23T08:16:32.356Z,84.44
2019-05-23T08:19:22.536Z,84.83
2019-05-23T08:20:22.007Z,84.39
2019-05-23T08:21:22.060Z,83.91
2019-05-23T08:22:22.290Z,83.95
2019-05-23T08:23:22.033Z,84.53
2019-05-23T08:24:22.039Z,82.64
2019-05-23T08:25:23.374Z,81.48
2019-05-23T08:26:22.027Z,82.12
2019-05-23T08:27:22.036Z,82.7
2019-05-23T08:28:22.014Z,80.96
2019-05-23T08:29:28.980Z,80.25
2019-05-23T08:30:22.067Z,79.67
2019-05-23T08:31:22.259Z,79.33
2019-05-23T08:32:22.040Z,78.17
2019-05-23T08:33:22.049Z,79.03
2019-05-23T08:34:39.804Z,79.75
2019-05-23T08:35:22.125Z,79.52
2019-05-23T08:36:22.135Z,79.52
2019-05-23T08:37:22.039Z,79.56
2019-05-23T08:38:22.130Z,80.14
2019-05-23T08:39:22.156Z,79.85
2019-05-23T08:40:22.104Z,79.79
2019-05-23T08:41:22.120Z,78.69
2019-05-23T08:42:22.071Z,77.76
2019-05-23T08:43:22.300Z,78.73
2019-05-23T08:44:22.061Z,78.34
2019-05-23T08:45:22.100Z,78.59
2019-05-23T08:46:22.098Z,79.36
2019-05-23T08:47:22.122Z,78.5
2019-05-23T08:48:22.051Z,79.56
2019-05-23T08:49:22.056Z,80.04
2019-05-23T08:50:22.065Z,78.79
2019-05-23T08:51:22.074Z,78.36
2019-05-23T08:52:22.090Z,77.5
2019-05-23T08:53:22.084Z,76.38
2019-05-23T08:54:22.502Z,76.03
2019-05-23T08:55:22.090Z,74.78
2019-05-23T08:56:22.515Z,74.16
2019-05-23T08:57:22.099Z,74.2
2019-05-23T08:58:22.097Z,73.05
2019-05-23T08:59:22.103Z,73.27
2019-05-23T09:00:22.175Z,73.18
2019-05-23T09:01:22.049Z,74.01
2019-05-23T09:02:22.077Z,74.62
2019-05-23T09:03:22.092Z,75.01
2019-05-23T09:04:37.883Z,74.91
2019-05-23T09:05:37.848Z,74.05
2019-05-23T09:06:37.855Z,73.31
2019-05-23T09:07:37.900Z,74.43
2019-05-23T09:08:37.958Z,73.47
2019-05-23T09:09:37.875Z,74.43
2019-05-23T09:10:37.927Z,73.95
2019-05-23T09:11:37.931Z,74.4
2019-05-23T09:12:37.931Z,75.14
2019-05-23T09:13:37.885Z,74.79
2019-05-23T09:14:37.887Z,74.51
2019-05-23T09:15:37.956Z,72.19
2019-05-23T09:16:37.909Z,71.32
2019-05-23T09:17:55.133Z,71.94
2019-05-23T09:18:37.932Z,72.9
2019-05-23T09:19:37.952Z,73.06
2019-05-23T09:20:37.909Z,72.54
2019-05-23T09:21:37.957Z,71.51
2019-05-23T09:22:37.906Z,71.42
2019-05-23T09:23:41.702Z,71.61
2019-05-23T09:24:37.895Z,72.09
2019-05-23T09:25:37.909Z,74.12
2019-05-23T09:26:37.948Z,74.73
2019-05-23T09:27:37.894Z,73.9
2019-05-23T09:28:37.918Z,73.52
2019-05-23T09:29:37.924Z,71.58
2019-05-23T09:30:38.015Z,70.52
2019-05-23T09:31:37.959Z,70.14
2019-05-23T09:32:37.925Z,70.14
2019-05-23T09:33:37.972Z,70.78
2019-05-23T09:34:37.979Z,70.62
2019-05-23T09:35:37.892Z,70.42
2019-05-23T09:36:37.937Z,69.98
2019-05-23T09:37:37.920Z,69.17
2019-05-23T09:38:38.055Z,69
2019-05-23T09:39:37.940Z,69.07
2019-05-23T09:40:37.924Z,69.46
2019-05-23T09:41:37.925Z,70.9
2019-05-23T09:42:37.968Z,70.17
2019-05-23T09:43:37.959Z,70.52
2019-05-23T09:44:38.051Z,70.72
2019-05-23T09:45:37.977Z,71.2
2019-05-23T09:46:37.958Z,70.58
2019-05-23T09:47:37.949Z,71.22
2019-05-23T09:48:37.931Z,72.55
2019-05-23T09:49:37.941Z,70.72
2019-05-23T09:50:37.938Z,70.46
2019-05-23T09:55:06.748Z,69.74
2019-05-23T09:56:06.850Z,70.32
2019-05-23T09:57:06.735Z,69.17
2019-05-23T09:58:06.679Z,69.07
2019-05-23T09:59:06.651Z,69.49
2019-05-23T10:00:10.398Z,70.36
2019-05-23T10:01:06.707Z,69.49
2019-05-23T10:02:06.964Z,69.9
2019-05-23T10:03:06.676Z,70.28
2019-05-23T10:04:06.678Z,69.32
2019-05-23T10:05:06.691Z,68.93
2019-05-23T10:06:06.817Z,70.22
2019-05-23T10:07:06.725Z,70.74
2019-05-23T10:08:06.703Z,70.94
2019-05-23T10:09:06.696Z,71.42
2019-05-23T10:10:06.744Z,71.42
2019-05-23T10:11:06.707Z,71.38
2019-05-23T10:14:14.022Z,70.51
2019-05-23T10:14:25.017Z,68.94
2019-05-23T10:15:26.593Z,69.23
2019-05-23T10:16:25.043Z,69.26
2019-05-23T10:17:25.269Z,69.59
2019-05-23T10:18:24.976Z,70.42
2019-05-23T10:19:25.026Z,70.54
2019-05-23T10:20:25.030Z,69.07
2019-05-23T10:21:25.013Z,68.1
2019-05-23T10:22:25.016Z,68.4
2019-05-23T10:23:25.009Z,68.91
2019-05-23T10:24:25.020Z,70.36
2019-05-23T10:25:25.013Z,69.49
2019-05-23T10:30:42.922Z,68.4
2019-05-23T10:30:54.284Z,70.39
2019-05-23T10:31:53.945Z,70.26
2019-05-23T10:32:54.007Z,70.45
2019-05-23T10:33:54.013Z,70.68
2019-05-23T10:34:53.941Z,70.52
2019-05-23T10:36:03.527Z,69.74
2019-05-23T10:36:53.951Z,69.74
2019-05-23T10:37:54.084Z,69.46
2019-05-23T10:38:54.008Z,70.16
2019-05-23T10:39:53.994Z,69.13
2019-05-23T10:40:53.998Z,69.04
2019-05-23T10:41:53.903Z,68.59
2019-05-23T10:42:53.909Z,69.07
2019-05-23T10:43:53.993Z,69.87
2019-05-23T10:44:53.966Z,69.2
2019-05-23T10:45:54.048Z,68.75
2019-05-23T10:46:53.938Z,68.88
2019-05-23T10:47:53.924Z,66.94
2019-05-23T10:48:53.970Z,68.1
2019-05-23T10:49:54.047Z,67.17
2019-05-23T10:50:54.055Z,66.69
2019-05-23T10:51:53.993Z,67.69
2019-05-23T10:52:54.003Z,68.91
2019-05-23T10:53:53.968Z,68.14
2019-05-23T10:54:54.447Z,66.69
2019-05-23T10:55:54.000Z,67.08
2019-05-23T10:56:53.948Z,65.53
2019-05-23T10:57:53.960Z,65.5
2019-05-23T10:58:53.949Z,64.92
2019-05-23T10:59:54.046Z,65.24
2019-05-23T11:00:54.056Z,65.43
2019-05-23T11:01:53.998Z,65.92
2019-05-23T11:02:53.988Z,64.95
2019-05-23T11:03:53.950Z,65.47
2019-05-23T11:04:54.310Z,65.56
2019-05-23T11:05:53.984Z,65.43
2019-05-23T11:06:53.966Z,63.5
2019-05-23T11:07:53.976Z,62.18
2019-05-23T11:08:54.028Z,62.08
2019-05-23T11:09:54.010Z,63.24
2019-05-23T11:10:53.976Z,63.56
2019-05-23T11:11:54.007Z,64.37
2019-05-23T11:12:54.030Z,63.4
2019-05-23T11:13:54.015Z,64.53
2019-05-23T11:14:53.989Z,64.24
2019-05-23T11:15:54.139Z,63.89
2019-05-23T11:16:54.021Z,63.6
2019-05-23T11:17:56.440Z,64.76
2019-05-23T11:18:54.010Z,65.98
2019-05-23T11:19:54.015Z,67.36
2019-05-23T11:26:33.331Z,64.01
2019-05-23T11:27:33.334Z,63.01
2019-05-23T11:28:33.369Z,62.63
2019-05-23T11:29:33.455Z,63.05
2019-05-23T11:30:33.364Z,63.21
2019-05-23T11:31:33.352Z,63.08
2019-05-23T11:32:33.318Z,62.46
2019-05-23T11:33:33.317Z,60.92
2019-05-23T11:34:33.304Z,61.15
2019-05-23T11:35:33.313Z,62.3
2019-05-23T11:36:39.276Z,61.43
2019-05-23T11:37:33.303Z,61.3
2019-05-23T11:38:33.292Z,63.34
2019-05-23T11:39:33.344Z,63.11
2019-05-23T11:40:36.359Z,63.02
2019-05-23T11:41:33.337Z,63.63
2019-05-23T11:42:33.521Z,63.92
2019-05-23T11:43:33.366Z,64.01
2019-05-23T11:44:49.184Z,64.85
2019-05-23T11:45:49.229Z,64.4
2019-05-23T11:46:49.157Z,64.34
2019-05-23T11:47:49.142Z,63.56
2019-05-23T11:48:49.168Z,63.66
2019-05-23T11:49:49.511Z,63.24
2019-05-23T11:50:49.415Z,63.85
2019-05-23T11:51:49.190Z,63.66
2019-05-23T11:52:49.173Z,62.66
2019-05-23T11:54:09.742Z,63.14
2019-05-23T11:54:49.211Z,62.95
2019-05-23T11:55:53.873Z,61.47
2019-05-23T11:56:49.182Z,62.18
2019-05-23T11:57:49.180Z,63.95
2019-05-23T11:58:49.215Z,63.31
2019-05-23T11:59:49.141Z,60.98
2019-05-23T12:00:49.356Z,60.21
2019-05-23T12:01:49.176Z,59.07
2019-05-23T12:02:49.183Z,59.53
2019-05-23T12:03:49.230Z,60.75
2019-05-23T12:04:49.237Z,62.47
2019-05-23T12:05:49.199Z,62.47
2019-05-23T12:06:58.377Z,62.59
2019-05-23T12:07:49.198Z,61.24
2019-05-23T12:08:49.207Z,60.85
2019-05-23T12:09:49.172Z,61.53
2019-05-23T12:10:49.271Z,61.56
2019-05-23T12:11:49.200Z,63.21
2019-05-23T12:12:49.175Z,62.53
2019-05-23T12:13:49.232Z,62.11
2019-05-23T12:14:49.229Z,62.11
2019-05-23T12:15:50.743Z,62.18
2019-05-23T12:16:49.237Z,62.85
2019-05-23T12:17:49.198Z,63.56
2019-05-23T12:18:49.207Z,64.4
2019-05-23T12:19:49.339Z,63.34
2019-05-23T12:20:49.182Z,62.53
2019-05-23T12:21:49.208Z,62.98
2019-05-23T12:22:49.433Z,63.18
2019-05-23T12:23:49.208Z,64.24
2019-05-23T12:29:06.135Z,63.02
2019-05-23T12:29:17.229Z,62.21
2019-05-23T12:30:17.201Z,62.21
2019-05-23T12:31:17.235Z,61.53
2019-05-23T12:32:17.240Z,61.92
2019-05-23T12:33:17.245Z,63.05
2019-05-23T12:34:17.200Z,64.04
2019-05-23T12:35:17.211Z,63.66
2019-05-23T12:36:17.237Z,63.76
2019-05-23T12:37:21.685Z,63.18
2019-05-23T12:38:17.236Z,64.11
2019-05-23T12:39:17.560Z,62.18
2019-05-23T12:40:17.222Z,62.11
2019-05-23T12:45:34.742Z,63.73
2019-05-23T12:45:46.091Z,66.14
2019-05-23T12:46:45.781Z,64.4
2019-05-23T12:47:45.761Z,64.18
2019-05-23T12:48:45.786Z,63.53
2019-05-23T12:49:46.675Z,65.75
2019-05-23T12:50:46.053Z,63.82
2019-05-23T12:51:45.803Z,63.73
2019-05-23T12:52:45.847Z,64.69
2019-05-23T12:53:45.753Z,64.85
2019-05-23T12:54:45.792Z,64.11
2019-05-23T12:55:45.785Z,65.24
2019-05-23T12:56:50.604Z,64.76
2019-05-23T12:57:45.882Z,66.2
2019-05-23T12:59:20.637Z,66.59
2019-05-23T12:59:45.792Z,65.56
2019-05-23T13:00:45.839Z,65.34
2019-05-23T13:01:45.910Z,65.17
2019-05-23T13:02:45.825Z,64.21
2019-05-23T13:03:45.838Z,63.14
2019-05-23T13:04:46.044Z,64.04
2019-05-23T13:05:45.879Z,64.14
2019-05-23T13:06:45.831Z,64.34
2019-05-23T13:07:45.843Z,64.34
2019-05-23T13:08:45.811Z,63.76
2019-05-23T13:09:47.371Z,64.85
2019-05-23T13:10:45.857Z,63.98
2019-05-23T13:11:45.852Z,62.53
2019-05-23T13:12:45.940Z,61.92
2019-05-23T13:13:45.845Z,63.05
2019-05-23T13:14:45.864Z,64.72
2019-05-23T13:15:45.833Z,63.82
2019-05-23T13:16:45.878Z,63.72
2019-05-23T13:17:45.844Z,63.92
2019-05-23T13:18:45.832Z,63.89
2019-05-23T13:19:45.883Z,66.78
2019-05-23T13:20:45.845Z,67.18
2019-05-23T13:21:45.807Z,66.6
2019-05-23T13:22:45.933Z,65.59
2019-05-23T13:23:45.861Z,64.75
2019-05-23T13:24:55.477Z,64.27
2019-05-23T13:25:45.874Z,65.34
2019-05-23T13:26:45.867Z,65.2
2019-05-23T13:27:45.888Z,65.3
2019-05-23T13:28:45.864Z,65.3
2019-05-23T13:29:45.884Z,66.2
2019-05-23T13:30:45.875Z,65.27
2019-05-23T13:31:45.833Z,63.89
2019-05-23T13:32:45.880Z,63.56
2019-05-23T13:33:45.876Z,65.4
2019-05-23T13:34:45.883Z,65.69
2019-05-23T13:35:45.922Z,64.56
2019-05-23T13:36:46.013Z,65.5
2019-05-23T13:37:56.337Z,66.37
2019-05-23T13:38:45.876Z,65.4
2019-05-23T13:39:46.214Z,65.24
2019-05-23T13:40:45.972Z,64.56
2019-05-23T13:41:45.840Z,63.82
2019-05-23T13:42:45.862Z,64.69
2019-05-23T13:43:45.954Z,63.76
2019-05-23T13:44:46.003Z,63.56
2019-05-23T13:45:45.865Z,64.27
2019-05-23T13:46:45.951Z,64.07
2019-05-23T13:47:45.875Z,64.11
2019-05-23T13:48:45.903Z,62.82
2019-05-23T13:49:49.788Z,62.53
2019-05-23T13:50:46.166Z,61.56
2019-05-23T13:51:45.997Z,61.46
2019-05-23T13:52:45.886Z,61.01